Time;durP1;ratioP1;P1;durP2;ratioP2;P2;SDS_P1;SDS_P2;PMS_P1;PMS_P2;Temp;Humidity;BMP_temperature;BMP_pressure;BME280_temperature;BME280_humidity;BME280_pressure;Samples;Min_cycle;Max_cycle;Signal;HPM_P1;HPM_P2
2021/01/21 00:04:03;;;;;;;4.27;2.40;;;9.50;99.90;;;;;;20523774;28;20705;-72
2021/01/21 00:14:06;;;;;;;0.83;0.83;;;10.20;99.90;;;;;;20547817;28;20199;-72
2021/01/21 00:24:10;;;;;;;0.57;0.57;;;10.00;99.90;;;;;;20546481;28;20719;-71
2021/01/21 00:34:13;;;;;;;0.93;0.93;;;9.60;99.90;;;;;;20544515;28;20201;-71
2021/01/21 00:44:17;;;;;;;4.70;1.87;;;9.00;99.90;;;;;;20542272;28;20575;-71
2021/01/21 00:54:20;;;;;;;1.50;1.40;;;8.60;99.90;;;;;;20543694;28;20538;-71
2021/01/21 01:04:23;;;;;;;0.50;0.40;;;8.90;99.90;;;;;;20597901;22;20333;-75
2021/01/21 01:14:26;;;;;;;1.43;1.03;;;9.40;99.90;;;;;;20608700;28;20216;-73
2021/01/21 01:24:30;;;;;;;1.23;0.73;;;9.60;99.90;;;;;;20623973;28;20232;-74
2021/01/21 01:45:13;;;;;;;3.13;1.40;;;9.90;99.90;;;;;;20603364;28;20227;-73
2021/01/21 01:55:16;;;;;;;1.40;1.17;;;9.30;99.90;;;;;;20622125;28;20294;-73
2021/01/21 02:05:24;;;;;;;0.77;0.77;;;8.50;99.90;;;;;;20619878;28;20711;-76
2021/01/21 02:15:38;;;;;;;1.23;1.13;;;8.30;99.90;;;;;;20618458;28;20196;-75
2021/01/21 02:25:47;;;;;;;3.63;1.63;;;8.80;99.90;;;;;;20599764;28;20661;-73
2021/01/21 02:36:13;;;;;;;0.80;0.67;;;8.90;99.90;;;;;;20613610;28;20218;-74
2021/01/21 02:46:16;;;;;;;2.53;1.90;;;7.90;99.90;;;;;;20582037;28;20234;-72
2021/01/21 02:56:21;;;;;;;2.17;1.30;;;7.80;99.90;;;;;;20598231;28;20596;-73
2021/01/21 03:06:33;;;;;;;0.20;0.20;;;7.80;99.90;;;;;;20617867;28;20964;-74
2021/01/21 03:16:36;;;;;;;3.03;2.27;;;7.60;99.90;;;;;;20619549;28;20627;-74
2021/01/21 03:26:39;;;;;;;0.90;0.53;;;7.60;99.90;;;;;;20617713;28;20223;-74
2021/01/21 03:36:43;;;;;;;0.90;0.70;;;7.50;99.90;;;;;;20627585;28;20223;-73
2021/01/21 03:46:46;;;;;;;0.50;0.43;;;7.70;99.90;;;;;;20630608;28;20226;-74
2021/01/21 03:56:50;;;;;;;1.60;1.00;;;7.90;99.90;;;;;;20612438;28;20195;-73
2021/01/21 04:06:52;;;;;;;1.37;1.03;;;7.90;99.90;;;;;;20630523;28;20675;-74
2021/01/21 04:16:56;;;;;;;0.70;0.63;;;7.60;99.90;;;;;;20593695;28;20195;-72
2021/01/21 04:26:58;;;;;;;1.07;0.97;;;7.80;99.90;;;;;;20594931;28;20370;-71
2021/01/21 04:37:03;;;;;;;2.47;1.97;;;9.20;99.90;;;;;;20626487;28;20648;-73
2021/01/21 04:47:08;;;;;;;0.47;0.47;;;9.30;99.90;;;;;;22390050;22;20361;-74
2021/01/21 04:57:28;;;;;;;0.37;0.37;;;9.50;99.90;;;;;;20712745;28;20556;-75
2021/01/21 05:07:31;;;;;;;1.73;1.20;;;10.90;99.90;;;;;;20710716;28;20250;-75
2021/01/21 05:17:36;;;;;;;0.50;0.50;;;11.00;99.90;;;;;;20710228;28;20591;-73
2021/01/21 05:27:43;;;;;;;0.77;0.57;;;11.00;99.90;;;;;;20709279;28;20227;-74
2021/01/21 05:37:54;;;;;;;1.63;0.70;;;11.00;99.90;;;;;;20707563;28;20653;-73
2021/01/21 05:47:57;;;;;;;1.77;1.67;;;11.00;99.90;;;;;;20707290;28;20933;-71
2021/01/21 05:58:03;;;;;;;0.37;0.37;;;10.80;99.90;;;;;;20705226;28;20203;-72
2021/01/21 06:08:06;;;;;;;0.30;0.30;;;10.60;99.90;;;;;;20708080;28;20218;-76
2021/01/21 06:18:10;;;;;;;1.23;1.13;;;10.20;99.90;;;;;;20671124;28;20201;-75
2021/01/21 06:28:14;;;;;;;0.20;0.10;;;9.70;99.90;;;;;;20686687;28;20710;-74
2021/01/21 06:38:21;;;;;;;0.40;0.40;;;9.80;99.90;;;;;;20685535;28;20206;-75
2021/01/21 06:48:24;;;;;;;0.27;0.27;;;10.70;99.90;;;;;;20702128;28;20356;-75
2021/01/21 06:58:47;;;;;;;0.87;0.57;;;11.20;99.90;;;;;;20698518;28;20671;-75
2021/01/21 07:09:05;;;;;;;0.27;0.27;;;11.10;99.90;;;;;;20699529;28;20304;-76
2021/01/21 07:19:13;;;;;;;0.20;0.20;;;10.90;99.90;;;;;;20699276;28;20191;-74
2021/01/21 07:29:17;;;;;;;0.60;0.60;;;11.00;99.90;;;;;;20700933;28;20706;-75
2021/01/21 07:39:53;;;;;;;0.87;0.77;;;10.90;99.90;;;;;;20702971;28;20211;-73
2021/01/21 07:50:41;;;;;;;0.50;0.30;;;11.10;99.90;;;;;;20695474;28;20235;-73
2021/01/21 08:00:47;;;;;;;0.70;0.70;;;11.50;99.90;;;;;;20696153;28;20203;-75
2021/01/21 08:10:49;;;;;;;1.60;1.17;;;11.80;99.90;;;;;;20679048;28;20619;-73
2021/01/21 08:20:53;;;;;;;1.47;1.33;;;11.70;99.90;;;;;;20698284;28;20202;-71
2021/01/21 08:30:56;;;;;;;1.47;1.03;;;12.00;99.90;;;;;;20710662;28;20227;-75
2021/01/21 08:41:01;;;;;;;0.20;0.10;;;12.10;99.90;;;;;;20702855;28;20265;-71
2021/01/21 08:51:04;;;;;;;1.57;1.27;;;12.60;99.90;;;;;;20708178;28;20308;-73
2021/01/21 09:01:09;;;;;;;0.80;0.67;;;12.90;99.90;;;;;;20709508;28;20327;-72
2021/01/21 09:11:30;;;;;;;4.03;0.77;;;13.20;99.90;;;;;;20709183;28;20230;-72
2021/01/21 09:21:34;;;;;;;0.63;0.53;;;13.40;99.90;;;;;;20669834;28;20203;-71
2021/01/21 09:31:36;;;;;;;3.80;0.77;;;13.30;99.90;;;;;;20706842;28;20245;-73
2021/01/21 09:41:40;;;;;;;0.30;0.23;;;13.50;99.90;;;;;;20704853;28;20198;-72
2021/01/21 09:51:43;;;;;;;0.57;0.40;;;13.70;99.90;;;;;;20675696;28;20229;-72
2021/01/21 10:01:47;;;;;;;1.63;0.43;;;14.20;99.90;;;;;;20672003;28;20241;-73
2021/01/21 10:12:06;;;;;;;0.40;0.23;;;14.40;99.90;;;;;;20662545;28;20696;-71
2021/01/21 10:22:10;;;;;;;0.50;0.43;;;14.60;99.90;;;;;;20617619;28;20222;-73
2021/01/21 10:32:21;;;;;;;0.50;0.50;;;14.70;99.90;;;;;;20620216;28;20195;-71
2021/01/21 10:42:36;;;;;;;1.47;0.73;;;15.10;99.90;;;;;;20620098;28;20565;-72
2021/01/21 10:52:38;;;;;;;1.50;1.17;;;15.70;99.90;;;;;;20662357;28;20578;-73
2021/01/21 11:02:42;;;;;;;0.50;0.40;;;16.00;99.90;;;;;;20700768;28;20320;-72
2021/01/21 11:12:48;;;;;;;3.53;1.10;;;16.20;99.90;;;;;;20698538;28;20207;-74
2021/01/21 11:22:51;;;;;;;2.07;1.87;;;16.50;99.90;;;;;;20701193;28;20234;-72
2021/01/21 11:32:59;;;;;;;0.67;0.67;;;16.70;99.90;;;;;;20667213;28;20233;-75
2021/01/21 11:43:04;;;;;;;1.80;1.40;;;16.90;99.90;;;;;;20697679;28;20357;-72
2021/01/21 11:53:07;;;;;;;1.47;0.70;;;17.10;99.90;;;;;;20700453;28;20363;-74
2021/01/21 12:03:15;;;;;;;0.37;0.37;;;17.20;99.90;;;;;;20693363;28;20558;-71
2021/01/21 12:13:18;;;;;;;0.27;0.27;;;17.60;99.90;;;;;;20712266;28;20836;-73
2021/01/21 12:23:22;;;;;;;0.40;0.40;;;18.10;99.90;;;;;;20710188;28;20229;-72
2021/01/21 12:33:24;;;;;;;1.03;0.53;;;17.60;99.90;;;;;;20710243;28;20277;-73
2021/01/21 12:43:28;;;;;;;0.20;0.00;;;17.50;99.90;;;;;;20706545;28;20226;-73
2021/01/21 12:53:32;;;;;;;0.20;0.10;;;17.30;99.90;;;;;;20709239;28;20213;-72
2021/01/21 13:03:37;;;;;;;0.70;0.17;;;18.30;99.90;;;;;;20687311;28;20580;-72
2021/01/21 13:13:42;;;;;;;0.20;0.10;;;18.20;99.90;;;;;;20707416;28;20191;-73
2021/01/21 13:23:46;;;;;;;1.13;0.67;;;17.90;99.90;;;;;;20703470;28;20223;-69
2021/01/21 13:33:50;;;;;;;0.43;0.43;;;17.90;99.90;;;;;;20699934;28;20194;-72
2021/01/21 13:43:53;;;;;;;0.33;0.30;;;17.90;99.90;;;;;;20701712;28;20237;-73
2021/01/21 13:54:00;;;;;;;0.20;0.20;;;17.50;99.90;;;;;;20686203;28;20712;-72
2021/01/21 14:04:03;;;;;;;0.20;0.10;;;17.30;99.90;;;;;;20704132;28;20317;-72
2021/01/21 14:14:06;;;;;;;0.20;0.10;;;17.60;99.90;;;;;;20705737;28;20285;-72
2021/01/21 14:24:13;;;;;;;0.30;0.30;;;17.70;99.90;;;;;;20699881;28;20663;-72
2021/01/21 14:34:15;;;;;;;0.20;0.00;;;17.70;99.90;;;;;;20703145;28;20221;-72
2021/01/21 14:44:20;;;;;;;0.20;0.10;;;17.80;99.90;;;;;;20698466;28;20238;-72
2021/01/21 14:54:25;;;;;;;0.20;0.10;;;17.40;99.90;;;;;;20696964;28;20274;-73
2021/01/21 15:04:29;;;;;;;0.60;0.30;;;17.10;99.90;;;;;;20699452;28;20712;-73
2021/01/21 15:14:32;;;;;;;1.53;0.50;;;17.00;99.90;;;;;;20696555;28;20217;-72
2021/01/21 15:24:35;;;;;;;2.10;0.43;;;17.20;99.90;;;;;;20697509;28;20702;-71
2021/01/21 15:34:38;;;;;;;0.90;0.43;;;17.20;99.90;;;;;;20711997;28;20247;-74
2021/01/21 15:44:42;;;;;;;0.40;0.20;;;17.10;99.90;;;;;;20683107;28;20241;-72
2021/01/21 15:54:45;;;;;;;0.30;0.30;;;16.70;99.90;;;;;;20674763;28;20608;-72
2021/01/21 16:04:51;;;;;;;0.20;0.20;;;16.50;99.90;;;;;;20708026;28;20409;-70
2021/01/21 16:14:54;;;;;;;0.20;0.10;;;16.30;99.90;;;;;;20706696;28;20198;-71
2021/01/21 16:24:58;;;;;;;0.20;0.10;;;16.00;99.90;;;;;;20707792;28;20417;-71
2021/01/21 16:35:02;;;;;;;0.20;0.10;;;15.90;99.90;;;;;;20704840;28;20255;-71
2021/01/21 16:45:08;;;;;;;0.40;0.10;;;15.60;99.90;;;;;;20703925;28;20235;-70
2021/01/21 16:55:12;;;;;;;0.20;0.10;;;15.40;99.90;;;;;;20686504;28;20214;-71
2021/01/21 17:05:16;;;;;;;0.33;0.20;;;15.20;99.90;;;;;;20703434;28;20524;-72
2021/01/21 17:15:18;;;;;;;0.20;0.10;;;15.10;99.90;;;;;;20701380;28;20209;-72
2021/01/21 17:25:22;;;;;;;0.33;0.20;;;15.00;99.90;;;;;;20704121;28;20233;-73
2021/01/21 17:35:25;;;;;;;0.20;0.10;;;14.90;99.90;;;;;;20702806;28;20237;-71
2021/01/21 17:45:29;;;;;;;0.40;0.40;;;14.80;99.90;;;;;;20667571;28;20325;-70
2021/01/21 17:55:31;;;;;;;0.20;0.20;;;15.00;99.90;;;;;;20702271;28;20237;-71
2021/01/21 18:05:35;;;;;;;3.63;0.30;;;15.10;99.90;;;;;;20699437;28;20314;-70
2021/01/21 18:15:38;;;;;;;0.40;0.30;;;15.00;99.90;;;;;;20695081;28;20190;-71
2021/01/21 18:25:42;;;;;;;0.47;0.47;;;15.00;99.90;;;;;;20699756;28;20333;-70
2021/01/21 18:35:45;;;;;;;0.30;0.20;;;14.90;99.90;;;;;;20678299;28;20725;-70
2021/01/21 18:45:51;;;;;;;0.20;0.20;;;14.90;99.90;;;;;;20679574;28;20769;-70
2021/01/21 18:55:55;;;;;;;0.70;0.40;;;14.80;99.90;;;;;;20679785;28;20269;-70
2021/01/21 19:05:59;;;;;;;0.20;0.20;;;14.70;99.90;;;;;;20673789;28;20230;-68
2021/01/21 19:16:01;;;;;;;0.20;0.10;;;14.70;99.90;;;;;;20678466;28;20234;-67
2021/01/21 19:26:05;;;;;;;1.60;0.40;;;14.70;99.90;;;;;;20693825;28;20266;-68
2021/01/21 19:36:09;;;;;;;1.07;0.87;;;14.50;99.90;;;;;;20691175;28;20206;-70
2021/01/21 19:46:12;;;;;;;0.43;0.33;;;14.60;99.90;;;;;;20694047;28;20352;-69
2021/01/21 19:56:17;;;;;;;0.33;0.33;;;14.50;99.90;;;;;;20674625;28;20311;-69
2021/01/21 20:06:21;;;;;;;0.20;0.13;;;14.40;99.90;;;;;;20697297;28;20341;-69
2021/01/21 20:16:24;;;;;;;0.20;0.20;;;14.30;99.90;;;;;;20698027;28;20214;-71
2021/01/21 20:26:28;;;;;;;0.97;0.87;;;14.10;99.90;;;;;;20710834;28;20318;-70
2021/01/21 20:36:31;;;;;;;0.20;0.20;;;13.80;99.90;;;;;;20708009;28;20310;-68
2021/01/21 20:46:35;;;;;;;0.20;0.10;;;13.40;99.90;;;;;;20693844;28;20313;-70
2021/01/21 20:56:38;;;;;;;0.43;0.27;;;13.20;99.90;;;;;;20708963;28;20229;-70
2021/01/21 21:06:41;;;;;;;0.70;0.50;;;13.20;99.90;;;;;;20711256;28;20617;-69
2021/01/21 21:16:44;;;;;;;1.33;0.73;;;13.90;99.90;;;;;;20708813;28;20260;-68
2021/01/21 21:26:49;;;;;;;0.20;0.10;;;13.80;99.90;;;;;;20690814;28;20238;-68
2021/01/21 21:36:51;;;;;;;0.27;0.27;;;13.70;99.90;;;;;;20706324;28;20785;-72
2021/01/21 21:46:55;;;;;;;0.20;0.10;;;13.60;99.90;;;;;;20705592;28;20269;-70
2021/01/21 21:56:57;;;;;;;0.30;0.20;;;13.30;99.90;;;;;;20686790;28;20281;-71
2021/01/21 22:07:01;;;;;;;0.20;0.10;;;13.10;99.90;;;;;;20704747;28;20541;-71
2021/01/21 22:17:04;;;;;;;0.20;0.10;;;13.10;99.90;;;;;;20684052;28;20632;-71
2021/01/21 22:27:07;;;;;;;0.30;0.30;;;13.10;99.90;;;;;;20685316;28;20234;-72
2021/01/21 22:37:10;;;;;;;4.00;0.53;;;12.90;99.90;;;;;;22567933;22;20325;-80
2021/01/21 22:47:14;;;;;;;0.20;0.10;;;12.70;99.90;;;;;;20772886;28;21020;-79
2021/01/21 22:57:17;;;;;;;0.20;0.10;;;12.80;99.90;;;;;;20695739;28;20205;-78
2021/01/21 23:07:20;;;;;;;0.30;0.23;;;12.90;99.90;;;;;;20692909;28;20225;-78
2021/01/21 23:17:23;;;;;;;0.60;0.53;;;12.70;99.90;;;;;;20695612;28;20230;-81
2021/01/21 23:27:33;;;;;;;0.20;0.20;;;12.90;99.90;;;;;;20713385;28;20277;-79
2021/01/21 23:37:36;;;;;;;0.20;0.20;;;13.40;99.90;;;;;;20744711;28;20232;-80
2021/01/21 23:47:40;;;;;;;0.20;0.10;;;13.70;99.90;;;;;;20767269;28;20968;-83
2021/01/21 23:57:43;;;;;;;0.40;0.30;;;13.80;99.90;;;;;;20706583;28;20199;-81
